createdAt,value
2022-08-07T00:00:26.513Z,2.55
2022-08-07T00:02:39.761Z,2.20
2022-08-07T00:02:56.124Z,2.85
2022-08-07T00:05:00.181Z,2.08
2022-08-07T00:05:24.726Z,2.40
2022-08-07T00:07:27.683Z,2.03
2022-08-07T00:08:00.318Z,2.60
2022-08-07T00:10:26.217Z,2.15
2022-08-07T00:10:31.427Z,2.30
2022-08-07T00:12:59.747Z,2.17
2022-08-07T00:13:09.734Z,2.90
2022-08-07T00:15:38.170Z,1.80
2022-08-07T00:15:51.517Z,2.13
2022-08-07T00:18:24.345Z,2.70
2022-08-07T00:20:49.476Z,2.10
2022-08-07T00:20:56.709Z,2.60
2022-08-07T00:23:17.271Z,1.80
2022-08-07T00:23:25.068Z,2.58
2022-08-07T00:25:45.853Z,2.10
2022-08-07T00:26:00.100Z,2.92
2022-08-07T00:28:33.208Z,2.15
2022-08-07T00:28:33.958Z,2.88
2022-08-07T00:31:05.793Z,2.08
2022-08-07T00:31:06.087Z,2.95
2022-08-07T00:33:34.974Z,2.00
2022-08-07T00:33:35.641Z,2.70
2022-08-07T00:36:03.431Z,1.95
2022-08-07T00:36:03.897Z,2.70
2022-08-07T00:38:31.105Z,2.00
2022-08-07T00:38:33.318Z,2.92
2022-08-07T00:40:59.605Z,1.80
2022-08-07T00:41:02.072Z,2.70
2022-08-07T00:44:00.598Z,2.85
2022-08-07T00:44:01.684Z,1.90
2022-08-07T00:46:14.371Z,2.28
2022-08-07T00:46:17.505Z,2.80
2022-08-07T00:48:42.368Z,2.13
2022-08-07T00:48:45.557Z,2.80
2022-08-07T00:51:09.731Z,1.75
2022-08-07T00:51:17.681Z,2.80
2022-08-07T00:53:38.512Z,1.90
2022-08-07T00:53:55.137Z,2.65
2022-08-07T00:56:13.720Z,1.95
2022-08-07T00:56:30.328Z,3.00
2022-08-07T00:58:43.783Z,2.40
2022-08-07T00:59:02.161Z,2.92
2022-08-07T01:01:15.425Z,2.35
2022-08-07T01:01:30.078Z,2.70
2022-08-07T01:03:55.333Z,2.30
2022-08-07T01:04:11.950Z,2.75
2022-08-07T01:06:26.351Z,1.90
2022-08-07T01:06:52.302Z,3.00
2022-08-07T01:08:55.639Z,2.25
2022-08-07T01:10:04.180Z,2.92
2022-08-07T01:12:23.646Z,1.88
2022-08-07T01:12:30.177Z,2.70
2022-08-07T01:14:15.523Z,2.53
2022-08-07T01:15:00.962Z,2.40
2022-08-07T01:16:47.179Z,2.50
2022-08-07T01:17:31.131Z,2.72
2022-08-07T01:19:18.884Z,2.83
2022-08-07T01:20:16.697Z,2.70
2022-08-07T01:21:53.210Z,2.13
2022-08-07T01:22:57.823Z,2.92
2022-08-07T01:24:27.579Z,2.40
2022-08-07T01:25:54.727Z,2.90
2022-08-07T01:26:59.732Z,2.28
2022-08-07T01:28:23.317Z,2.90
2022-08-07T01:29:31.436Z,2.03
2022-08-07T01:30:54.996Z,3.03
2022-08-07T01:32:05.294Z,2.13
2022-08-07T01:33:53.544Z,2.88
2022-08-07T01:34:33.675Z,2.40
2022-08-07T01:36:16.783Z,3.00
2022-08-07T01:37:09.662Z,2.25
2022-08-07T01:38:46.301Z,3.20
2022-08-07T01:39:41.280Z,1.90
2022-08-07T01:41:26.220Z,3.25
2022-08-07T01:42:40.308Z,2.10
2022-08-07T01:43:57.492Z,2.83
2022-08-07T01:45:22.748Z,2.38
2022-08-07T01:46:26.627Z,3.03
2022-08-07T01:48:18.300Z,2.20
2022-08-07T01:48:55.510Z,3.22
2022-08-07T01:50:47.063Z,2.53
2022-08-07T01:52:01.786Z,2.65
2022-08-07T01:53:21.942Z,1.77
2022-08-07T01:54:32.680Z,3.20
2022-08-07T01:56:22.331Z,2.15
2022-08-07T01:57:24.570Z,3.20
2022-08-07T01:59:05.972Z,2.17
2022-08-07T02:00:03.189Z,3.60
2022-08-07T02:02:00.014Z,2.20
2022-08-07T02:03:18.856Z,2.97
2022-08-07T02:04:35.410Z,2.05
2022-08-07T02:05:59.580Z,3.30
2022-08-07T02:07:06.190Z,2.08
2022-08-07T02:09:53.149Z,2.95
2022-08-07T02:12:29.363Z,2.13
2022-08-07T02:15:00.853Z,2.22
2022-08-07T02:17:49.474Z,2.40
2022-08-07T02:20:23.279Z,2.17
2022-08-07T02:22:57.627Z,2.30
2022-08-07T02:26:10.618Z,2.35
2022-08-07T02:28:25.674Z,2.30
2022-08-07T02:31:10.341Z,2.40
2022-08-07T02:34:01.843Z,2.25
2022-08-07T02:36:33.839Z,2.30
2022-08-07T02:39:16.137Z,2.47
2022-08-07T02:41:50.752Z,2.20
2022-08-07T02:44:27.590Z,2.60
2022-08-07T02:47:05.507Z,2.70
2022-08-07T02:49:56.409Z,2.30
2022-08-07T02:52:31.054Z,2.00
2022-08-07T02:55:27.760Z,2.58
2022-08-07T02:58:04.429Z,2.55
2022-08-07T03:00:34.971Z,2.28
2022-08-07T03:03:06.361Z,2.40
2022-08-07T03:05:37.905Z,2.67
2022-08-07T03:08:10.477Z,2.63
2022-08-07T03:10:46.925Z,2.90
2022-08-07T03:13:19.541Z,2.90
2022-08-07T03:15:56.235Z,2.25
2022-08-07T03:18:35.085Z,2.75
2022-08-07T03:21:08.726Z,2.90
2022-08-07T03:24:20.055Z,2.90
2022-08-07T03:26:32.092Z,2.60
2022-08-07T03:29:03.109Z,2.95
2022-08-07T03:31:42.659Z,2.95
2022-08-07T03:34:18.828Z,2.65
2022-08-07T03:36:53.284Z,2.60
2022-08-07T03:39:46.189Z,2.80
2022-08-07T03:42:11.955Z,2.83
2022-08-07T03:44:40.537Z,3.03
2022-08-07T03:47:11.343Z,3.17
2022-08-07T03:49:51.901Z,2.58
2022-08-07T03:52:27.361Z,2.80
2022-08-07T03:55:06.271Z,3.00
2022-08-07T03:58:34.396Z,2.90
2022-08-07T04:00:29.206Z,3.13
2022-08-07T04:03:03.759Z,3.08
2022-08-07T04:05:40.131Z,2.97
2022-08-07T04:08:16.163Z,3.20
2022-08-07T04:10:54.831Z,3.28
2022-08-07T04:14:09.430Z,2.80
2022-08-07T04:16:30.963Z,2.85
2022-08-07T04:19:04.137Z,2.97
2022-08-07T04:21:58.948Z,3.40
2022-08-07T04:24:38.805Z,2.80
2022-08-07T04:27:20.341Z,2.92
2022-08-07T04:30:02.011Z,3.45
2022-08-07T04:32:58.198Z,3.30
2022-08-07T04:35:28.646Z,3.15
2022-08-07T04:38:08.191Z,3.78
2022-08-07T04:40:52.073Z,3.50
2022-08-07T04:44:09.791Z,3.60
2022-08-07T04:47:04.400Z,3.55
2022-08-07T04:50:04.539Z,3.60
2022-08-07T04:52:50.991Z,4.15
2022-08-07T04:58:10.699Z,4.97
2022-08-07T04:59:17.057Z,4.50
2022-08-07T05:02:11.291Z,4.95
2022-08-07T05:04:50.867Z,4.82
2022-08-07T05:07:36.480Z,5.20
2022-08-07T05:10:11.786Z,5.18
2022-08-07T05:12:53.815Z,5.00
2022-08-07T05:15:31.240Z,4.95
2022-08-07T05:18:09.017Z,5.15
2022-08-07T05:20:43.620Z,5.82
2022-08-07T05:23:29.936Z,5.87
2022-08-07T05:26:13.447Z,6.60
2022-08-07T05:28:50.344Z,6.72
2022-08-07T05:34:04.836Z,6.57
2022-08-07T05:36:39.107Z,6.97
2022-08-07T05:40:13.804Z,7.43
2022-08-07T05:42:07.546Z,7.88
2022-08-07T05:44:46.370Z,7.18
2022-08-07T05:47:19.936Z,7.47
2022-08-07T05:49:52.112Z,7.38
2022-08-07T05:52:32.293Z,7.13
2022-08-07T05:55:07.045Z,7.05
2022-08-07T05:57:41.941Z,6.97
2022-08-07T06:00:16.337Z,7.43
2022-08-07T06:02:53.689Z,7.13
2022-08-07T06:05:28.376Z,6.57
2022-08-07T06:08:13.869Z,6.95
2022-08-07T06:10:51.263Z,7.13
2022-08-07T06:14:10.996Z,6.95
2022-08-07T06:16:13.289Z,6.95
2022-08-07T06:18:43.307Z,6.43
2022-08-07T06:22:14.806Z,6.53
2022-08-07T06:24:37.509Z,7.10
2022-08-07T06:26:54.940Z,7.32
2022-08-07T06:29:27.625Z,6.93
2022-08-07T06:31:55.908Z,7.05
2022-08-07T06:34:29.750Z,7.45
2022-08-07T06:36:58.818Z,7.07
2022-08-07T06:40:17.984Z,6.77
2022-08-07T06:42:39.201Z,6.82
2022-08-07T06:45:18.213Z,6.90
2022-08-07T06:47:59.013Z,7.28
2022-08-07T06:50:43.082Z,7.00
2022-08-07T06:53:18.796Z,7.03
2022-08-07T06:56:03.991Z,7.35
2022-08-07T07:01:11.969Z,6.80
2022-08-07T07:03:49.089Z,7.22
2022-08-07T07:06:26.252Z,7.13
2022-08-07T07:08:55.070Z,6.90
2022-08-07T07:12:08.991Z,6.82
2022-08-07T07:14:14.106Z,7.97
2022-08-07T07:16:51.133Z,7.00
2022-08-07T07:19:57.119Z,7.10
2022-08-07T07:22:36.533Z,7.07
2022-08-07T07:26:30.416Z,7.22
2022-08-07T07:28:02.317Z,7.82
2022-08-07T07:30:40.053Z,6.90
2022-08-07T07:33:11.449Z,6.20
2022-08-07T07:35:54.151Z,6.38
2022-08-07T07:38:31.130Z,6.30
2022-08-07T07:41:03.296Z,6.45
2022-08-07T07:44:14.568Z,6.05
2022-08-07T07:46:53.319Z,6.15
2022-08-07T07:50:32.675Z,6.50
2022-08-07T07:52:01.092Z,5.75
2022-08-07T07:54:31.587Z,6.10
2022-08-07T07:57:01.817Z,6.20
2022-08-07T07:59:52.224Z,5.95
2022-08-07T08:02:22.489Z,6.38
2022-08-07T08:05:03.830Z,5.50
2022-08-07T08:07:35.734Z,5.97
2022-08-07T08:10:14.904Z,5.70
2022-08-07T08:13:02.859Z,4.57
2022-08-07T08:15:58.713Z,4.00
2022-08-07T08:18:25.002Z,4.80
2022-08-07T08:20:54.055Z,4.63
2022-08-07T08:23:41.096Z,4.45
2022-08-07T08:26:28.004Z,4.28
2022-08-07T08:28:59.140Z,4.07
2022-08-07T08:31:30.175Z,3.60
2022-08-07T08:34:27.314Z,3.67
2022-08-07T08:36:58.408Z,3.70
2022-08-07T08:39:39.240Z,3.60
2022-08-07T08:42:36.752Z,3.72
2022-08-07T08:45:18.436Z,3.20
2022-08-07T08:48:21.296Z,2.90
2022-08-07T08:51:03.405Z,2.90
2022-08-07T08:53:57.722Z,2.90
2022-08-07T08:56:36.092Z,2.88
2022-08-07T08:59:16.420Z,2.45
2022-08-07T09:02:00.331Z,2.90
2022-08-07T09:04:54.718Z,2.67
2022-08-07T09:07:46.336Z,2.70
2022-08-07T09:10:33.996Z,2.60
2022-08-07T09:13:14.674Z,2.80
2022-08-07T09:16:22.759Z,2.70
2022-08-07T09:19:07.349Z,2.70
2022-08-07T09:24:27.497Z,1.85
2022-08-07T09:25:21.508Z,2.15
2022-08-07T09:28:01.900Z,2.42
2022-08-07T09:30:54.552Z,2.40
2022-08-07T09:33:52.588Z,1.90
2022-08-07T09:36:35.796Z,1.88
2022-08-07T09:39:55.250Z,2.63
2022-08-07T09:42:41.218Z,2.13
2022-08-07T09:47:55.115Z,1.43
2022-08-07T09:48:29.950Z,1.38
2022-08-07T09:52:16.324Z,1.80
2022-08-07T09:54:30.049Z,1.17
2022-08-07T09:57:13.052Z,1.60
2022-08-07T10:00:03.715Z,2.13
2022-08-07T10:04:03.830Z,2.03
2022-08-07T10:06:25.704Z,2.08
2022-08-07T10:09:08.570Z,2.17
2022-08-07T10:12:15.193Z,2.35
2022-08-07T10:15:15.158Z,1.67
2022-08-07T10:18:28.722Z,2.10
2022-08-07T10:21:19.897Z,2.30
2022-08-07T10:24:17.162Z,2.03
2022-08-07T10:27:11.113Z,2.10
2022-08-07T10:30:00.569Z,1.75
2022-08-07T10:33:00.235Z,2.17
2022-08-07T10:35:55.047Z,2.25
2022-08-07T10:38:49.067Z,2.15
2022-08-07T10:41:45.979Z,2.25
2022-08-07T10:44:45.228Z,2.15
2022-08-07T10:47:27.206Z,1.83
2022-08-07T10:50:09.529Z,1.95
2022-08-07T10:52:51.340Z,1.70
2022-08-07T10:55:37.179Z,2.05
2022-08-07T10:58:36.447Z,1.80
2022-08-07T11:01:26.101Z,1.70
2022-08-07T11:04:31.925Z,2.10
2022-08-07T11:07:56.968Z,2.13
2022-08-07T11:10:13.269Z,2.40
2022-08-07T11:13:03.841Z,2.55
2022-08-07T11:15:35.809Z,2.30
2022-08-07T11:18:29.220Z,2.20
2022-08-07T11:21:04.253Z,2.20
2022-08-07T11:24:16.990Z,2.10
2022-08-07T11:27:09.372Z,2.20
2022-08-07T11:30:18.752Z,2.20
2022-08-07T11:32:58.489Z,1.98
2022-08-07T11:35:30.511Z,2.00
2022-08-07T11:38:10.221Z,2.10
2022-08-07T11:41:02.049Z,1.90
2022-08-07T11:44:11.379Z,1.90
2022-08-07T11:46:48.964Z,2.00
2022-08-07T11:50:18.649Z,1.90
2022-08-07T11:52:29.034Z,1.83
2022-08-07T11:56:15.503Z,1.95
2022-08-07T11:58:49.706Z,1.85
2022-08-07T12:01:59.319Z,1.90
2022-08-07T12:04:43.028Z,1.63
2022-08-07T12:07:27.255Z,1.90
2022-08-07T12:10:13.665Z,1.63
2022-08-07T12:12:47.756Z,1.80
2022-08-07T12:15:57.927Z,1.63
2022-08-07T12:18:16.117Z,1.60
2022-08-07T12:21:02.067Z,1.90
2022-08-07T12:24:04.845Z,1.52
2022-08-07T12:26:34.403Z,1.85
2022-08-07T12:29:37.145Z,2.00
2022-08-07T12:32:43.868Z,1.75
2022-08-07T12:35:13.296Z,1.70
2022-08-07T12:38:10.714Z,2.10
2022-08-07T12:40:47.654Z,1.80
2022-08-07T12:44:01.779Z,1.75
2022-08-07T12:46:36.946Z,1.35
2022-08-07T12:49:50.987Z,1.70
2022-08-07T12:52:34.039Z,1.50
2022-08-07T12:55:09.339Z,1.73
2022-08-07T12:58:01.141Z,1.80
2022-08-07T13:00:41.732Z,1.63
2022-08-07T13:03:54.745Z,1.60
2022-08-07T13:07:01.726Z,1.27
2022-08-07T13:10:29.378Z,1.70
2022-08-07T13:13:02.769Z,1.80
2022-08-07T13:15:48.557Z,1.80
2022-08-07T13:18:31.264Z,1.88
2022-08-07T13:21:12.591Z,1.75
2022-08-07T13:24:01.217Z,1.67
2022-08-07T13:26:46.220Z,1.60
2022-08-07T13:29:51.269Z,1.55
2022-08-07T13:32:43.374Z,1.80
2022-08-07T13:35:24.691Z,1.50
2022-08-07T13:38:21.624Z,1.45
2022-08-07T13:41:17.484Z,1.60
2022-08-07T13:43:52.859Z,1.65
2022-08-07T13:46:33.828Z,1.70
2022-08-07T13:49:08.667Z,1.55
2022-08-07T13:52:23.112Z,1.50
2022-08-07T13:54:43.140Z,1.48
2022-08-07T13:57:24.208Z,1.83
2022-08-07T13:59:55.817Z,1.58
2022-08-07T14:02:33.426Z,1.60
2022-08-07T14:05:13.189Z,1.92
2022-08-07T14:07:59.943Z,1.60
2022-08-07T14:10:42.439Z,1.73
2022-08-07T14:13:17.928Z,1.63
2022-08-07T14:15:57.015Z,1.50
2022-08-07T14:18:34.777Z,1.85
2022-08-07T14:22:41.250Z,1.63
2022-08-07T14:24:22.889Z,2.08
2022-08-07T14:26:54.521Z,1.75
2022-08-07T14:30:06.432Z,1.83
2022-08-07T14:32:20.542Z,1.60
2022-08-07T14:34:54.845Z,1.73
2022-08-07T14:37:39.259Z,1.70
2022-08-07T14:40:26.726Z,1.75
2022-08-07T14:45:51.316Z,1.80
2022-08-07T14:48:33.241Z,1.30
2022-08-07T14:51:05.144Z,1.70
2022-08-07T14:56:30.349Z,1.60
2022-08-07T14:59:04.473Z,1.55
2022-08-07T15:01:51.418Z,1.67
2022-08-07T15:04:19.857Z,1.52
2022-08-07T15:06:52.896Z,1.55
2022-08-07T15:09:58.997Z,1.50
2022-08-07T15:12:25.820Z,1.48
2022-08-07T15:15:08.180Z,1.27
2022-08-07T15:17:54.675Z,1.80
2022-08-07T15:20:33.688Z,1.73
2022-08-07T15:23:17.111Z,1.70
2022-08-07T15:25:55.578Z,1.60
2022-08-07T15:28:34.551Z,1.75
2022-08-07T15:31:12.170Z,1.50
2022-08-07T15:33:42.820Z,1.63
2022-08-07T15:36:11.656Z,1.60
2022-08-07T15:38:59.324Z,1.45
2022-08-07T15:42:43.316Z,1.50
2022-08-07T15:44:21.157Z,1.63
2022-08-07T15:50:05.069Z,1.50
2022-08-07T15:52:36.403Z,1.50
2022-08-07T15:55:11.374Z,1.80
2022-08-07T15:57:48.617Z,1.70
2022-08-07T16:00:31.897Z,1.70
2022-08-07T16:05:49.929Z,1.80
2022-08-07T16:08:31.178Z,2.03
2022-08-07T16:11:26.981Z,1.63
2022-08-07T16:14:03.534Z,1.40
2022-08-07T16:16:48.006Z,1.67
2022-08-07T16:20:33.954Z,1.65
2022-08-07T16:23:54.187Z,1.50
2022-08-07T16:26:10.579Z,1.75
2022-08-07T16:30:05.550Z,1.52
2022-08-07T16:32:01.460Z,1.48
2022-08-07T16:34:36.750Z,1.50
2022-08-07T16:38:09.238Z,1.70
2022-08-07T16:40:33.958Z,1.40
2022-08-07T16:44:03.909Z,1.30
2022-08-07T16:47:07.821Z,1.40
2022-08-07T16:50:28.730Z,1.20
2022-08-07T16:52:57.487Z,1.40
2022-08-07T16:55:43.787Z,1.27
2022-08-07T16:59:14.567Z,1.42
2022-08-07T17:01:59.399Z,1.20
2022-08-07T17:04:57.799Z,1.30
2022-08-07T17:07:55.412Z,1.55
2022-08-07T17:10:34.704Z,1.35
2022-08-07T17:13:21.223Z,1.75
2022-08-07T17:16:05.644Z,1.58
2022-08-07T17:18:46.129Z,1.35
2022-08-07T17:21:26.495Z,1.60
2022-08-07T17:24:14.442Z,1.73
2022-08-07T17:26:55.035Z,1.58
2022-08-07T17:30:15.817Z,1.90
2022-08-07T17:34:08.819Z,1.80
2022-08-07T17:36:20.087Z,1.70
2022-08-07T17:39:10.452Z,1.80
2022-08-07T17:42:01.767Z,1.60
2022-08-07T17:44:49.463Z,1.70
2022-08-07T17:50:19.469Z,1.50
2022-08-07T17:53:07.391Z,1.38
2022-08-07T17:55:54.778Z,1.50
2022-08-07T17:58:50.541Z,1.35
2022-08-07T18:01:34.795Z,1.20
2022-08-07T18:04:37.350Z,1.38
2022-08-07T18:07:20.299Z,1.50
2022-08-07T18:10:06.824Z,1.33
2022-08-07T18:12:58.646Z,1.30
2022-08-07T18:15:32.933Z,1.30
2022-08-07T18:18:46.955Z,1.42
2022-08-07T18:21:27.458Z,1.38
2022-08-07T18:24:07.355Z,1.42
2022-08-07T18:26:41.351Z,1.35
2022-08-07T18:30:04.203Z,1.42
2022-08-07T18:32:20.485Z,1.30
2022-08-07T18:35:13.026Z,1.42
2022-08-07T18:38:57.158Z,1.50
2022-08-07T18:43:57.570Z,1.38
2022-08-07T18:46:37.152Z,1.40
2022-08-07T18:50:19.123Z,1.40
2022-08-07T18:52:53.896Z,1.60
2022-08-07T18:56:00.213Z,1.48
2022-08-07T18:58:51.653Z,1.35
2022-08-07T19:02:20.181Z,1.55
2022-08-07T19:04:57.615Z,1.35
2022-08-07T19:07:53.802Z,1.50
2022-08-07T19:10:31.603Z,1.65
2022-08-07T19:13:11.817Z,1.50
2022-08-07T19:16:04.329Z,1.85
2022-08-07T19:18:54.301Z,1.80
2022-08-07T19:21:56.838Z,1.80
2022-08-07T19:24:43.550Z,1.80
2022-08-07T19:28:58.336Z,1.90
2022-08-07T19:31:05.414Z,1.80
2022-08-07T19:33:12.855Z,1.90
2022-08-07T19:35:46.124Z,1.80
2022-08-07T19:38:17.743Z,1.65
2022-08-07T19:40:50.230Z,1.85
2022-08-07T19:43:48.860Z,2.00
2022-08-07T19:46:18.980Z,1.90
2022-08-07T19:48:54.155Z,1.80
2022-08-07T19:51:51.927Z,2.25
2022-08-07T19:54:44.344Z,2.10
2022-08-07T19:57:56.736Z,2.25
2022-08-07T19:59:59.384Z,2.05
2022-08-07T20:02:54.520Z,2.13
2022-08-07T20:06:30.501Z,1.95
2022-08-07T20:10:33.662Z,2.58
2022-08-07T20:12:31.494Z,2.38
2022-08-07T20:14:54.166Z,2.28
2022-08-07T20:17:26.813Z,2.07
2022-08-07T20:19:58.278Z,2.25
2022-08-07T20:22:34.038Z,2.10
2022-08-07T20:25:18.371Z,2.38
2022-08-07T20:30:34.437Z,1.92
2022-08-07T20:33:05.579Z,2.33
2022-08-07T20:35:54.541Z,2.10
2022-08-07T20:38:29.618Z,2.35
2022-08-07T20:41:03.905Z,2.38
2022-08-07T20:43:34.885Z,2.70
2022-08-07T20:46:30.042Z,2.63
2022-08-07T20:49:55.116Z,2.47
2022-08-07T20:51:50.672Z,2.50
2022-08-07T20:54:29.732Z,2.30
2022-08-07T20:57:03.235Z,2.45
2022-08-07T21:00:07.237Z,2.63
2022-08-07T21:02:54.238Z,3.10
2022-08-07T21:05:50.882Z,2.88
2022-08-07T21:08:19.885Z,2.53
2022-08-07T21:11:01.679Z,2.42
2022-08-07T21:13:43.880Z,2.58
2022-08-07T21:16:33.391Z,2.70
2022-08-07T21:19:02.736Z,3.03
2022-08-07T21:21:33.277Z,2.83
2022-08-07T21:24:42.138Z,2.85
2022-08-07T21:27:26.263Z,2.90
2022-08-07T21:30:10.855Z,3.00
2022-08-07T21:33:01.312Z,2.85
2022-08-07T21:36:05.226Z,2.72
2022-08-07T21:38:46.363Z,2.95
2022-08-07T21:42:01.246Z,2.90
2022-08-07T21:44:41.833Z,3.20
2022-08-07T21:47:36.226Z,2.97
2022-08-07T21:50:14.745Z,3.50
2022-08-07T21:53:11.489Z,3.33
2022-08-07T21:56:01.820Z,3.50
2022-08-07T21:58:46.584Z,3.47
2022-08-07T22:02:07.486Z,3.43
2022-08-07T22:04:23.137Z,3.25
2022-08-07T22:07:05.590Z,3.30
2022-08-07T22:09:53.617Z,3.35
2022-08-07T22:12:27.453Z,3.42
2022-08-07T22:16:44.473Z,3.40
2022-08-07T22:18:02.697Z,3.30
2022-08-07T22:21:20.484Z,3.70
2022-08-07T22:24:11.967Z,3.58
2022-08-07T22:26:50.274Z,3.28
2022-08-07T22:29:33.687Z,3.78
2022-08-07T22:32:43.905Z,3.55
2022-08-07T22:35:11.543Z,3.58
2022-08-07T22:38:10.348Z,3.50
2022-08-07T22:41:02.829Z,3.58
2022-08-07T22:43:42.265Z,3.67
2022-08-07T22:46:46.803Z,3.50
2022-08-07T22:49:19.899Z,3.42
2022-08-07T22:52:34.609Z,3.47
2022-08-07T22:55:23.473Z,3.95
2022-08-07T22:58:23.288Z,3.88
2022-08-07T23:01:23.419Z,4.00
2022-08-07T23:04:09.464Z,3.83
2022-08-07T23:07:40.448Z,3.70
2022-08-07T23:10:37.987Z,4.22
2022-08-07T23:13:18.652Z,3.97
2022-08-07T23:16:46.840Z,4.30
2022-08-07T23:19:51.678Z,4.45
2022-08-07T23:22:32.571Z,4.77
2022-08-07T23:25:20.915Z,4.25
2022-08-07T23:28:21.917Z,4.40
2022-08-07T23:31:13.869Z,4.40
2022-08-07T23:34:23.710Z,4.15
2022-08-07T23:37:31.923Z,4.40
2022-08-07T23:40:17.663Z,4.28
2022-08-07T23:43:17.438Z,4.45
2022-08-07T23:46:02.831Z,4.40
2022-08-07T23:48:58.892Z,4.30
2022-08-07T23:53:16.847Z,4.63
2022-08-07T23:54:46.815Z,4.55
2022-08-07T23:57:36.208Z,4.50
